sensor_id;sensor_type;location;lat;lon;timestamp;temperature;humidity
62575;DHT22;53112;45.602;11.904;2022-08-01T00:00:38;26.80;55.70
62575;DHT22;53112;45.602;11.904;2022-08-01T00:03:04;26.80;56.60
62575;DHT22;53112;45.602;11.904;2022-08-01T00:05:30;26.80;57.30
62575;DHT22;53112;45.602;11.904;2022-08-01T00:07:56;26.90;56.40
62575;DHT22;53112;45.602;11.904;2022-08-01T00:10:22;26.90;55.70
62575;DHT22;53112;45.602;11.904;2022-08-01T00:12:48;26.90;56.80
62575;DHT22;53112;45.602;11.904;2022-08-01T00:15:16;26.80;56.80
62575;DHT22;53112;45.602;11.904;2022-08-01T00:17:43;26.80;57.20
62575;DHT22;53112;45.602;11.904;2022-08-01T00:20:11;26.70;56.80
62575;DHT22;53112;45.602;11.904;2022-08-01T00:22:38;26.60;57.00
62575;DHT22;53112;45.602;11.904;2022-08-01T00:25:06;26.70;56.50
62575;DHT22;53112;45.602;11.904;2022-08-01T00:27:32;26.70;56.40
62575;DHT22;53112;45.602;11.904;2022-08-01T00:29:58;26.70;57.00
62575;DHT22;53112;45.602;11.904;2022-08-01T00:32:24;26.60;56.90
62575;DHT22;53112;45.602;11.904;2022-08-01T00:34:50;26.60;57.20
62575;DHT22;53112;45.602;11.904;2022-08-01T00:37:16;26.50;58.00
62575;DHT22;53112;45.602;11.904;2022-08-01T00:39:42;26.50;58.50
62575;DHT22;53112;45.602;11.904;2022-08-01T00:42:10;26.50;57.50
62575;DHT22;53112;45.602;11.904;2022-08-01T00:44:37;26.40;57.40
62575;DHT22;53112;45.602;11.904;2022-08-01T00:47:05;26.40;57.80
62575;DHT22;53112;45.602;11.904;2022-08-01T00:49:31;26.40;58.00
62575;DHT22;53112;45.602;11.904;2022-08-01T00:51:57;26.30;58.90
62575;DHT22;53112;45.602;11.904;2022-08-01T00:54:26;26.10;61.30
62575;DHT22;53112;45.602;11.904;2022-08-01T00:56:53;26.00;62.30
62575;DHT22;53112;45.602;11.904;2022-08-01T00:59:22;25.90;61.40
62575;DHT22;53112;45.602;11.904;2022-08-01T01:01:48;25.90;61.10
62575;DHT22;53112;45.602;11.904;2022-08-01T01:04:14;26.00;60.40
62575;DHT22;53112;45.602;11.904;2022-08-01T01:12:37;25.90;61.40
62575;DHT22;53112;45.602;11.904;2022-08-01T01:15:15;25.80;61.60
62575;DHT22;53112;45.602;11.904;2022-08-01T01:18:00;26.00;61.10
62575;DHT22;53112;45.602;11.904;2022-08-01T01:20:32;26.10;60.20
62575;DHT22;53112;45.602;11.904;2022-08-01T01:28:17;26.10;59.90
62575;DHT22;53112;45.602;11.904;2022-08-01T01:30:50;25.80;63.00
62575;DHT22;53112;45.602;11.904;2022-08-01T01:33:17;25.60;62.50
62575;DHT22;53112;45.602;11.904;2022-08-01T01:35:51;25.60;62.50
62575;DHT22;53112;45.602;11.904;2022-08-01T01:38:21;25.60;63.00
62575;DHT22;53112;45.602;11.904;2022-08-01T01:40:49;25.80;61.10
62575;DHT22;53112;45.602;11.904;2022-08-01T01:43:16;25.70;61.40
62575;DHT22;53112;45.602;11.904;2022-08-01T01:45:45;25.70;62.30
62575;DHT22;53112;45.602;11.904;2022-08-01T01:48:14;25.80;61.70
62575;DHT22;53112;45.602;11.904;2022-08-01T01:50:43;25.80;62.20
62575;DHT22;53112;45.602;11.904;2022-08-01T01:53:13;25.80;62.50
62575;DHT22;53112;45.602;11.904;2022-08-01T01:55:41;25.80;61.70
62575;DHT22;53112;45.602;11.904;2022-08-01T01:58:12;25.70;63.60
62575;DHT22;53112;45.602;11.904;2022-08-01T02:00:40;25.30;64.50
62575;DHT22;53112;45.602;11.904;2022-08-01T02:03:09;25.20;65.70
62575;DHT22;53112;45.602;11.904;2022-08-01T02:05:37;25.10;65.50
62575;DHT22;53112;45.602;11.904;2022-08-01T02:08:05;25.30;65.90
62575;DHT22;53112;45.602;11.904;2022-08-01T02:10:34;25.30;65.40
62575;DHT22;53112;45.602;11.904;2022-08-01T02:13:03;25.40;63.80
62575;DHT22;53112;45.602;11.904;2022-08-01T02:15:32;25.40;63.90
62575;DHT22;53112;45.602;11.904;2022-08-01T02:18:00;25.30;65.00
62575;DHT22;53112;45.602;11.904;2022-08-01T02:20:29;25.20;65.00
62575;DHT22;53112;45.602;11.904;2022-08-01T02:23:04;25.10;66.00
62575;DHT22;53112;45.602;11.904;2022-08-01T02:28:36;25.30;63.30
62575;DHT22;53112;45.602;11.904;2022-08-01T02:31:10;25.40;63.00
62575;DHT22;53112;45.602;11.904;2022-08-01T02:33:44;25.40;62.00
62575;DHT22;53112;45.602;11.904;2022-08-01T02:36:11;25.40;62.20
62575;DHT22;53112;45.602;11.904;2022-08-01T02:38:42;25.40;62.10
62575;DHT22;53112;45.602;11.904;2022-08-01T02:41:11;25.30;62.40
62575;DHT22;53112;45.602;11.904;2022-08-01T02:43:42;25.30;62.00
62575;DHT22;53112;45.602;11.904;2022-08-01T02:46:12;25.30;61.80
62575;DHT22;53112;45.602;11.904;2022-08-01T02:48:41;25.20;61.80
62575;DHT22;53112;45.602;11.904;2022-08-01T02:51:08;25.20;61.60
62575;DHT22;53112;45.602;11.904;2022-08-01T02:53:37;25.10;61.70
62575;DHT22;53112;45.602;11.904;2022-08-01T02:56:05;25.10;61.50
62575;DHT22;53112;45.602;11.904;2022-08-01T02:58:34;25.10;62.80
62575;DHT22;53112;45.602;11.904;2022-08-01T03:01:02;24.70;64.40
62575;DHT22;53112;45.602;11.904;2022-08-01T03:03:30;24.50;65.10
62575;DHT22;53112;45.602;11.904;2022-08-01T03:05:58;24.50;64.60
62575;DHT22;53112;45.602;11.904;2022-08-01T03:08:25;24.60;64.20
62575;DHT22;53112;45.602;11.904;2022-08-01T03:10:53;24.60;64.00
62575;DHT22;53112;45.602;11.904;2022-08-01T03:13:21;24.50;64.10
62575;DHT22;53112;45.602;11.904;2022-08-01T03:15:48;24.40;64.80
62575;DHT22;53112;45.602;11.904;2022-08-01T03:18:15;24.20;65.70
62575;DHT22;53112;45.602;11.904;2022-08-01T03:20:43;24.10;65.70
62575;DHT22;53112;45.602;11.904;2022-08-01T03:23:12;24.10;66.50
62575;DHT22;53112;45.602;11.904;2022-08-01T03:25:41;24.10;65.40
62575;DHT22;53112;45.602;11.904;2022-08-01T03:28:12;24.30;64.30
62575;DHT22;53112;45.602;11.904;2022-08-01T03:30:39;24.50;63.60
62575;DHT22;53112;45.602;11.904;2022-08-01T03:33:06;24.40;63.90
62575;DHT22;53112;45.602;11.904;2022-08-01T03:35:45;24.30;64.40
62575;DHT22;53112;45.602;11.904;2022-08-01T03:38:16;24.30;65.00
62575;DHT22;53112;45.602;11.904;2022-08-01T03:40:52;24.30;64.40
62575;DHT22;53112;45.602;11.904;2022-08-01T03:43:46;24.10;65.10
62575;DHT22;53112;45.602;11.904;2022-08-01T03:46:19;24.10;65.50
62575;DHT22;53112;45.602;11.904;2022-08-01T03:48:48;24.20;64.80
62575;DHT22;53112;45.602;11.904;2022-08-01T03:51:17;24.40;63.50
62575;DHT22;53112;45.602;11.904;2022-08-01T03:53:45;24.40;63.80
62575;DHT22;53112;45.602;11.904;2022-08-01T03:56:16;24.20;64.50
62575;DHT22;53112;45.602;11.904;2022-08-01T03:58:45;24.20;64.80
62575;DHT22;53112;45.602;11.904;2022-08-01T04:01:13;24.10;65.20
62575;DHT22;53112;45.602;11.904;2022-08-01T04:03:40;23.90;65.90
62575;DHT22;53112;45.602;11.904;2022-08-01T04:06:07;24.00;65.50
62575;DHT22;53112;45.602;11.904;2022-08-01T04:08:39;24.20;64.10
62575;DHT22;53112;45.602;11.904;2022-08-01T04:11:08;24.40;63.20
62575;DHT22;53112;45.602;11.904;2022-08-01T04:13:34;24.40;62.80
62575;DHT22;53112;45.602;11.904;2022-08-01T04:16:01;24.50;62.20
62575;DHT22;53112;45.602;11.904;2022-08-01T04:18:26;24.60;61.90
62575;DHT22;53112;45.602;11.904;2022-08-01T04:20:52;24.40;62.50
62575;DHT22;53112;45.602;11.904;2022-08-01T04:23:22;24.40;62.20
62575;DHT22;53112;45.602;11.904;2022-08-01T04:25:50;24.50;62.60
62575;DHT22;53112;45.602;11.904;2022-08-01T04:28:17;24.50;62.10
62575;DHT22;53112;45.602;11.904;2022-08-01T04:30:46;24.60;61.30
62575;DHT22;53112;45.602;11.904;2022-08-01T04:33:15;24.80;60.80
62575;DHT22;53112;45.602;11.904;2022-08-01T04:35:45;24.90;60.30
62575;DHT22;53112;45.602;11.904;2022-08-01T04:38:15;25.00;60.40
62575;DHT22;53112;45.602;11.904;2022-08-01T04:40:42;25.10;60.40
62575;DHT22;53112;45.602;11.904;2022-08-01T04:43:11;25.20;60.90
62575;DHT22;53112;45.602;11.904;2022-08-01T04:45:38;25.30;59.60
62575;DHT22;53112;45.602;11.904;2022-08-01T04:48:05;25.40;58.70
62575;DHT22;53112;45.602;11.904;2022-08-01T04:50:32;25.60;58.50
62575;DHT22;53112;45.602;11.904;2022-08-01T04:52:58;25.60;58.40
62575;DHT22;53112;45.602;11.904;2022-08-01T04:55:24;25.70;58.80
62575;DHT22;53112;45.602;11.904;2022-08-01T04:57:50;25.70;58.40
62575;DHT22;53112;45.602;11.904;2022-08-01T05:00:16;25.80;58.20
62575;DHT22;53112;45.602;11.904;2022-08-01T05:02:42;25.90;58.10
62575;DHT22;53112;45.602;11.904;2022-08-01T05:05:08;25.90;57.40
62575;DHT22;53112;45.602;11.904;2022-08-01T05:07:36;25.90;57.30
62575;DHT22;53112;45.602;11.904;2022-08-01T05:10:05;26.10;56.90
62575;DHT22;53112;45.602;11.904;2022-08-01T05:12:32;26.20;56.40
62575;DHT22;53112;45.602;11.904;2022-08-01T05:15:01;26.20;56.60
62575;DHT22;53112;45.602;11.904;2022-08-01T05:17:28;26.30;55.70
62575;DHT22;53112;45.602;11.904;2022-08-01T05:19:54;26.50;54.70
62575;DHT22;53112;45.602;11.904;2022-08-01T05:22:20;26.70;54.40
62575;DHT22;53112;45.602;11.904;2022-08-01T05:24:46;27.00;54.20
62575;DHT22;53112;45.602;11.904;2022-08-01T05:27:13;27.10;53.60
62575;DHT22;53112;45.602;11.904;2022-08-01T05:29:39;27.40;53.10
62575;DHT22;53112;45.602;11.904;2022-08-01T05:32:06;27.50;52.80
62575;DHT22;53112;45.602;11.904;2022-08-01T05:34:32;27.60;52.30
62575;DHT22;53112;45.602;11.904;2022-08-01T05:36:58;27.60;52.00
62575;DHT22;53112;45.602;11.904;2022-08-01T05:39:23;27.80;51.60
62575;DHT22;53112;45.602;11.904;2022-08-01T05:41:49;27.90;51.70
62575;DHT22;53112;45.602;11.904;2022-08-01T05:44:15;28.00;51.50
62575;DHT22;53112;45.602;11.904;2022-08-01T05:46:42;28.20;51.50
62575;DHT22;53112;45.602;11.904;2022-08-01T05:49:07;28.30;51.10
62575;DHT22;53112;45.602;11.904;2022-08-01T05:51:33;28.40;51.00
62575;DHT22;53112;45.602;11.904;2022-08-01T05:54:00;28.60;50.50
62575;DHT22;53112;45.602;11.904;2022-08-01T05:56:26;28.60;50.60
62575;DHT22;53112;45.602;11.904;2022-08-01T05:58:53;28.90;50.20
62575;DHT22;53112;45.602;11.904;2022-08-01T06:01:19;29.10;50.00
62575;DHT22;53112;45.602;11.904;2022-08-01T06:03:45;29.20;49.70
62575;DHT22;53112;45.602;11.904;2022-08-01T06:06:12;29.40;49.40
62575;DHT22;53112;45.602;11.904;2022-08-01T06:08:40;29.60;49.10
62575;DHT22;53112;45.602;11.904;2022-08-01T06:11:06;29.70;49.00
62575;DHT22;53112;45.602;11.904;2022-08-01T06:13:32;29.80;48.90
62575;DHT22;53112;45.602;11.904;2022-08-01T06:15:58;30.00;48.80
62575;DHT22;53112;45.602;11.904;2022-08-01T06:18:24;30.10;48.40
62575;DHT22;53112;45.602;11.904;2022-08-01T06:20:50;30.30;48.00
62575;DHT22;53112;45.602;11.904;2022-08-01T06:23:17;30.60;47.20
62575;DHT22;53112;45.602;11.904;2022-08-01T06:25:43;30.70;46.70
62575;DHT22;53112;45.602;11.904;2022-08-01T06:28:09;30.90;46.80
62575;DHT22;53112;45.602;11.904;2022-08-01T06:30:35;31.00;46.70
62575;DHT22;53112;45.602;11.904;2022-08-01T06:33:01;31.20;46.90
62575;DHT22;53112;45.602;11.904;2022-08-01T06:35:28;31.30;46.60
62575;DHT22;53112;45.602;11.904;2022-08-01T06:37:56;31.40;47.20
62575;DHT22;53112;45.602;11.904;2022-08-01T06:40:23;31.20;49.00
62575;DHT22;53112;45.602;11.904;2022-08-01T06:42:49;31.60;47.50
62575;DHT22;53112;45.602;11.904;2022-08-01T06:45:16;31.90;46.90
62575;DHT22;53112;45.602;11.904;2022-08-01T06:47:43;32.00;47.40
62575;DHT22;53112;45.602;11.904;2022-08-01T06:50:10;32.10;46.90
62575;DHT22;53112;45.602;11.904;2022-08-01T06:52:37;32.40;46.00
62575;DHT22;53112;45.602;11.904;2022-08-01T06:55:04;32.60;45.70
62575;DHT22;53112;45.602;11.904;2022-08-01T06:57:30;32.60;45.50
62575;DHT22;53112;45.602;11.904;2022-08-01T06:59:57;32.50;46.30
62575;DHT22;53112;45.602;11.904;2022-08-01T07:02:23;32.70;45.90
62575;DHT22;53112;45.602;11.904;2022-08-01T07:04:49;33.00;45.70
62575;DHT22;53112;45.602;11.904;2022-08-01T07:07:15;33.10;45.70
62575;DHT22;53112;45.602;11.904;2022-08-01T07:09:41;33.20;45.40
62575;DHT22;53112;45.602;11.904;2022-08-01T07:12:08;33.70;44.70
62575;DHT22;53112;45.602;11.904;2022-08-01T07:14:34;33.90;44.30
62575;DHT22;53112;45.602;11.904;2022-08-01T07:17:01;34.10;44.10
62575;DHT22;53112;45.602;11.904;2022-08-01T07:19:27;34.10;44.00
62575;DHT22;53112;45.602;11.904;2022-08-01T07:21:53;34.30;44.20
62575;DHT22;53112;45.602;11.904;2022-08-01T07:24:19;34.40;43.70
62575;DHT22;53112;45.602;11.904;2022-08-01T07:26:47;34.10;44.20
62575;DHT22;53112;45.602;11.904;2022-08-01T07:29:13;34.60;43.60
62575;DHT22;53112;45.602;11.904;2022-08-01T07:31:39;34.70;43.50
62575;DHT22;53112;45.602;11.904;2022-08-01T07:34:05;35.10;42.60
62575;DHT22;53112;45.602;11.904;2022-08-01T07:36:31;35.40;41.70
62575;DHT22;53112;45.602;11.904;2022-08-01T07:38:57;35.50;41.50
62575;DHT22;53112;45.602;11.904;2022-08-01T07:41:23;35.50;41.50
62575;DHT22;53112;45.602;11.904;2022-08-01T07:43:50;35.40;41.30
62575;DHT22;53112;45.602;11.904;2022-08-01T07:46:16;35.50;41.20
62575;DHT22;53112;45.602;11.904;2022-08-01T07:48:43;35.70;40.90
62575;DHT22;53112;45.602;11.904;2022-08-01T07:51:09;35.90;40.60
62575;DHT22;53112;45.602;11.904;2022-08-01T07:53:36;36.00;40.20
62575;DHT22;53112;45.602;11.904;2022-08-01T07:56:03;36.00;40.00
62575;DHT22;53112;45.602;11.904;2022-08-01T07:58:32;36.10;40.00
62575;DHT22;53112;45.602;11.904;2022-08-01T08:00:58;36.10;39.70
62575;DHT22;53112;45.602;11.904;2022-08-01T08:03:24;36.30;38.60
62575;DHT22;53112;45.602;11.904;2022-08-01T08:05:50;36.20;39.10
62575;DHT22;53112;45.602;11.904;2022-08-01T08:08:16;36.30;39.10
62575;DHT22;53112;45.602;11.904;2022-08-01T08:10:43;36.80;38.40
62575;DHT22;53112;45.602;11.904;2022-08-01T08:13:09;37.20;37.80
62575;DHT22;53112;45.602;11.904;2022-08-01T08:15:35;37.60;37.10
62575;DHT22;53112;45.602;11.904;2022-08-01T08:18:03;38.00;36.40
62575;DHT22;53112;45.602;11.904;2022-08-01T08:20:30;37.80;36.50
62575;DHT22;53112;45.602;11.904;2022-08-01T08:22:56;37.80;36.40
62575;DHT22;53112;45.602;11.904;2022-08-01T08:25:24;37.90;36.40
62575;DHT22;53112;45.602;11.904;2022-08-01T08:27:51;38.30;35.90
62575;DHT22;53112;45.602;11.904;2022-08-01T08:30:18;38.60;34.20
62575;DHT22;53112;45.602;11.904;2022-08-01T08:32:44;38.90;34.00
62575;DHT22;53112;45.602;11.904;2022-08-01T08:35:10;38.80;33.70
62575;DHT22;53112;45.602;11.904;2022-08-01T08:37:37;39.00;33.50
62575;DHT22;53112;45.602;11.904;2022-08-01T08:40:05;39.00;31.50
62575;DHT22;53112;45.602;11.904;2022-08-01T08:42:32;39.30;32.50
62575;DHT22;53112;45.602;11.904;2022-08-01T08:44:58;39.50;31.70
62575;DHT22;53112;45.602;11.904;2022-08-01T08:47:25;39.70;31.30
62575;DHT22;53112;45.602;11.904;2022-08-01T08:49:56;40.00;30.80
62575;DHT22;53112;45.602;11.904;2022-08-01T08:52:24;39.70;30.40
62575;DHT22;53112;45.602;11.904;2022-08-01T08:54:51;39.40;31.50
62575;DHT22;53112;45.602;11.904;2022-08-01T08:57:20;40.10;29.80
62575;DHT22;53112;45.602;11.904;2022-08-01T08:59:46;40.90;29.10
62575;DHT22;53112;45.602;11.904;2022-08-01T09:02:13;41.10;28.80
62575;DHT22;53112;45.602;11.904;2022-08-01T09:04:39;41.40;28.00
62575;DHT22;53112;45.602;11.904;2022-08-01T09:07:06;41.10;26.10
62575;DHT22;53112;45.602;11.904;2022-08-01T09:09:33;41.70;26.40
62575;DHT22;53112;45.602;11.904;2022-08-01T09:11:59;41.60;24.60
62575;DHT22;53112;45.602;11.904;2022-08-01T09:14:26;42.30;24.60
62575;DHT22;53112;45.602;11.904;2022-08-01T09:17:02;43.00;23.10
62575;DHT22;53112;45.602;11.904;2022-08-01T09:19:46;43.30;23.60
62575;DHT22;53112;45.602;11.904;2022-08-01T09:22:19;43.40;23.70
62575;DHT22;53112;45.602;11.904;2022-08-01T09:25:04;43.60;24.20
62575;DHT22;53112;45.602;11.904;2022-08-01T09:27:31;43.90;23.60
62575;DHT22;53112;45.602;11.904;2022-08-01T09:32:33;44.00;23.10
62575;DHT22;53112;45.602;11.904;2022-08-01T09:40:59;45.20;22.10
62575;DHT22;53112;45.602;11.904;2022-08-01T09:43:30;44.50;22.50
62575;DHT22;53112;45.602;11.904;2022-08-01T09:45:56;45.50;22.20
62575;DHT22;53112;45.602;11.904;2022-08-01T09:48:23;45.30;22.20
62575;DHT22;53112;45.602;11.904;2022-08-01T09:50:52;45.80;21.70
62575;DHT22;53112;45.602;11.904;2022-08-01T09:53:19;46.10;21.90
62575;DHT22;53112;45.602;11.904;2022-08-01T09:55:45;45.60;21.30
62575;DHT22;53112;45.602;11.904;2022-08-01T09:58:11;44.50;22.50
62575;DHT22;53112;45.602;11.904;2022-08-01T10:00:38;45.90;21.70
62575;DHT22;53112;45.602;11.904;2022-08-01T10:03:22;45.90;19.00
62575;DHT22;53112;45.602;11.904;2022-08-01T10:05:49;46.00;19.30
62575;DHT22;53112;45.602;11.904;2022-08-01T10:08:16;45.00;20.60
62575;DHT22;53112;45.602;11.904;2022-08-01T10:11:10;44.00;20.90
62575;DHT22;53112;45.602;11.904;2022-08-01T10:13:36;42.40;22.50
62575;DHT22;53112;45.602;11.904;2022-08-01T10:16:03;42.50;22.30
62575;DHT22;53112;45.602;11.904;2022-08-01T10:18:33;43.40;21.80
62575;DHT22;53112;45.602;11.904;2022-08-01T10:21:00;44.20;21.10
62575;DHT22;53112;45.602;11.904;2022-08-01T10:23:27;45.30;20.60
62575;DHT22;53112;45.602;11.904;2022-08-01T10:25:58;46.30;20.10
62575;DHT22;53112;45.602;11.904;2022-08-01T10:28:26;45.90;20.00
62575;DHT22;53112;45.602;11.904;2022-08-01T10:30:57;46.70;19.70
62575;DHT22;53112;45.602;11.904;2022-08-01T10:33:24;47.00;19.00
62575;DHT22;53112;45.602;11.904;2022-08-01T10:35:51;47.80;18.40
62575;DHT22;53112;45.602;11.904;2022-08-01T10:38:17;48.30;18.40
62575;DHT22;53112;45.602;11.904;2022-08-01T10:40:44;48.40;18.10
62575;DHT22;53112;45.602;11.904;2022-08-01T10:43:11;47.70;18.10
62575;DHT22;53112;45.602;11.904;2022-08-01T10:45:39;48.00;18.30
62575;DHT22;53112;45.602;11.904;2022-08-01T10:50:51;49.50;16.80
62575;DHT22;53112;45.602;11.904;2022-08-01T10:53:22;49.90;16.80
62575;DHT22;53112;45.602;11.904;2022-08-01T10:58:36;48.20;17.40
62575;DHT22;53112;45.602;11.904;2022-08-01T11:03:42;48.20;17.00
62575;DHT22;53112;45.602;11.904;2022-08-01T11:06:17;48.00;17.60
62575;DHT22;53112;45.602;11.904;2022-08-01T11:08:51;49.00;16.80
62575;DHT22;53112;45.602;11.904;2022-08-01T11:11:19;47.00;17.90
62575;DHT22;53112;45.602;11.904;2022-08-01T11:14:01;48.00;17.50
62575;DHT22;53112;45.602;11.904;2022-08-01T11:16:32;48.70;16.90
62575;DHT22;53112;45.602;11.904;2022-08-01T11:18:58;50.00;16.50
62575;DHT22;53112;45.602;11.904;2022-08-01T11:27:29;51.30;15.50
62575;DHT22;53112;45.602;11.904;2022-08-01T11:32:47;52.50;14.90
62575;DHT22;53112;45.602;11.904;2022-08-01T11:35:14;52.40;14.80
62575;DHT22;53112;45.602;11.904;2022-08-01T11:37:41;52.60;14.90
62575;DHT22;53112;45.602;11.904;2022-08-01T11:40:21;50.70;15.50
62575;DHT22;53112;45.602;11.904;2022-08-01T11:42:47;51.00;15.50
62575;DHT22;53112;45.602;11.904;2022-08-01T11:45:13;50.30;15.60
62575;DHT22;53112;45.602;11.904;2022-08-01T11:47:48;49.90;15.60
62575;DHT22;53112;45.602;11.904;2022-08-01T11:50:30;50.30;15.00
62575;DHT22;53112;45.602;11.904;2022-08-01T11:53:02;51.50;14.20
62575;DHT22;53112;45.602;11.904;2022-08-01T11:55:29;52.50;14.30
62575;DHT22;53112;45.602;11.904;2022-08-01T11:58:03;51.50;14.00
62575;DHT22;53112;45.602;11.904;2022-08-01T12:00:30;51.40;14.60
62575;DHT22;53112;45.602;11.904;2022-08-01T12:03:01;51.50;15.20
62575;DHT22;53112;45.602;11.904;2022-08-01T12:05:29;52.10;14.40
62575;DHT22;53112;45.602;11.904;2022-08-01T12:07:57;52.00;14.50
62575;DHT22;53112;45.602;11.904;2022-08-01T12:10:28;51.10;14.30
62575;DHT22;53112;45.602;11.904;2022-08-01T12:13:02;49.50;15.00
62575;DHT22;53112;45.602;11.904;2022-08-01T12:15:36;49.50;14.80
62575;DHT22;53112;45.602;11.904;2022-08-01T12:18:06;49.00;14.60
62575;DHT22;53112;45.602;11.904;2022-08-01T12:20:39;50.40;14.80
62575;DHT22;53112;45.602;11.904;2022-08-01T12:23:09;52.20;13.70
62575;DHT22;53112;45.602;11.904;2022-08-01T12:25:36;52.70;13.70
62575;DHT22;53112;45.602;11.904;2022-08-01T12:28:10;52.70;13.30
62575;DHT22;53112;45.602;11.904;2022-08-01T12:30:39;51.10;13.80
62575;DHT22;53112;45.602;11.904;2022-08-01T12:33:08;51.60;14.20
62575;DHT22;53112;45.602;11.904;2022-08-01T12:35:37;52.50;13.30
62575;DHT22;53112;45.602;11.904;2022-08-01T12:38:04;53.40;13.00
62575;DHT22;53112;45.602;11.904;2022-08-01T12:40:35;54.10;12.80
62575;DHT22;53112;45.602;11.904;2022-08-01T12:43:06;53.00;13.80
62575;DHT22;53112;45.602;11.904;2022-08-01T12:45:42;51.90;14.60
62575;DHT22;53112;45.602;11.904;2022-08-01T12:48:13;52.20;14.30
62575;DHT22;53112;45.602;11.904;2022-08-01T12:50:42;52.20;13.90
62575;DHT22;53112;45.602;11.904;2022-08-01T12:53:09;51.60;14.10
62575;DHT22;53112;45.602;11.904;2022-08-01T12:55:53;50.70;14.30
62575;DHT22;53112;45.602;11.904;2022-08-01T12:58:20;51.80;13.40
62575;DHT22;53112;45.602;11.904;2022-08-01T13:00:48;53.00;13.30
62575;DHT22;53112;45.602;11.904;2022-08-01T13:03:18;53.20;12.60
62575;DHT22;53112;45.602;11.904;2022-08-01T13:05:55;53.90;12.60
62575;DHT22;53112;45.602;11.904;2022-08-01T13:08:23;53.10;12.70
62575;DHT22;53112;45.602;11.904;2022-08-01T13:10:50;53.10;12.70
62575;DHT22;53112;45.602;11.904;2022-08-01T13:13:18;52.90;12.50
62575;DHT22;53112;45.602;11.904;2022-08-01T13:15:45;51.50;13.70
62575;DHT22;53112;45.602;11.904;2022-08-01T13:18:28;51.90;13.60
62575;DHT22;53112;45.602;11.904;2022-08-01T13:21:14;51.10;15.50
62575;DHT22;53112;45.602;11.904;2022-08-01T13:24:08;50.60;16.40
62575;DHT22;53112;45.602;11.904;2022-08-01T13:29:10;51.50;16.00
62575;DHT22;53112;45.602;11.904;2022-08-01T13:31:37;51.20;16.50
62575;DHT22;53112;45.602;11.904;2022-08-01T13:34:04;50.80;16.60
62575;DHT22;53112;45.602;11.904;2022-08-01T13:36:31;49.90;17.30
62575;DHT22;53112;45.602;11.904;2022-08-01T13:38:58;49.90;17.60
62575;DHT22;53112;45.602;11.904;2022-08-01T13:41:44;49.30;17.40
62575;DHT22;53112;45.602;11.904;2022-08-01T13:44:10;48.30;17.90
62575;DHT22;53112;45.602;11.904;2022-08-01T13:46:38;49.00;17.60
62575;DHT22;53112;45.602;11.904;2022-08-01T13:49:05;48.40;18.00
62575;DHT22;53112;45.602;11.904;2022-08-01T13:51:32;48.60;17.70
62575;DHT22;53112;45.602;11.904;2022-08-01T13:53:59;48.80;18.40
62575;DHT22;53112;45.602;11.904;2022-08-01T13:56:26;47.80;18.50
62575;DHT22;53112;45.602;11.904;2022-08-01T13:58:54;46.60;19.90
62575;DHT22;53112;45.602;11.904;2022-08-01T14:01:21;45.40;21.60
62575;DHT22;53112;45.602;11.904;2022-08-01T14:03:47;45.80;21.30
62575;DHT22;53112;45.602;11.904;2022-08-01T14:06:13;46.30;20.90
62575;DHT22;53112;45.602;11.904;2022-08-01T14:08:42;47.20;19.80
62575;DHT22;53112;45.602;11.904;2022-08-01T14:11:09;47.00;20.20
62575;DHT22;53112;45.602;11.904;2022-08-01T14:13:35;45.80;21.20
62575;DHT22;53112;45.602;11.904;2022-08-01T14:16:04;44.80;21.80
62575;DHT22;53112;45.602;11.904;2022-08-01T14:18:31;44.00;22.80
62575;DHT22;53112;45.602;11.904;2022-08-01T14:20:57;43.60;22.90
62575;DHT22;53112;45.602;11.904;2022-08-01T14:23:23;43.90;22.60
62575;DHT22;53112;45.602;11.904;2022-08-01T14:25:49;44.40;22.10
62575;DHT22;53112;45.602;11.904;2022-08-01T14:28:15;45.20;21.30
62575;DHT22;53112;45.602;11.904;2022-08-01T14:30:42;45.60;21.90
62575;DHT22;53112;45.602;11.904;2022-08-01T14:33:09;45.50;22.00
62575;DHT22;53112;45.602;11.904;2022-08-01T14:35:36;45.30;22.30
62575;DHT22;53112;45.602;11.904;2022-08-01T14:38:02;46.00;21.70
62575;DHT22;53112;45.602;11.904;2022-08-01T14:40:29;45.20;22.10
62575;DHT22;53112;45.602;11.904;2022-08-01T14:42:55;45.80;21.80
62575;DHT22;53112;45.602;11.904;2022-08-01T14:45:21;46.00;21.10
62575;DHT22;53112;45.602;11.904;2022-08-01T14:47:47;45.50;21.70
62575;DHT22;53112;45.602;11.904;2022-08-01T14:50:15;46.10;21.50
62575;DHT22;53112;45.602;11.904;2022-08-01T14:52:42;46.10;21.80
62575;DHT22;53112;45.602;11.904;2022-08-01T14:55:10;45.90;21.50
62575;DHT22;53112;45.602;11.904;2022-08-01T14:57:37;45.40;21.30
62575;DHT22;53112;45.602;11.904;2022-08-01T15:00:07;45.80;21.50
62575;DHT22;53112;45.602;11.904;2022-08-01T15:02:36;45.70;21.90
62575;DHT22;53112;45.602;11.904;2022-08-01T15:05:02;45.50;22.00
62575;DHT22;53112;45.602;11.904;2022-08-01T15:07:28;45.20;22.00
62575;DHT22;53112;45.602;11.904;2022-08-01T15:09:54;44.70;22.70
62575;DHT22;53112;45.602;11.904;2022-08-01T15:12:21;44.80;22.50
62575;DHT22;53112;45.602;11.904;2022-08-01T15:14:48;44.90;22.50
62575;DHT22;53112;45.602;11.904;2022-08-01T15:17:20;45.10;22.40
62575;DHT22;53112;45.602;11.904;2022-08-01T15:19:47;44.40;22.80
62575;DHT22;53112;45.602;11.904;2022-08-01T15:22:14;44.80;22.50
62575;DHT22;53112;45.602;11.904;2022-08-01T15:24:41;44.70;22.20
62575;DHT22;53112;45.602;11.904;2022-08-01T15:27:08;45.20;21.60
62575;DHT22;53112;45.602;11.904;2022-08-01T15:29:35;45.10;22.00
62575;DHT22;53112;45.602;11.904;2022-08-01T15:32:03;44.50;22.30
62575;DHT22;53112;45.602;11.904;2022-08-01T15:34:31;43.20;23.40
62575;DHT22;53112;45.602;11.904;2022-08-01T15:36:57;42.20;24.00
62575;DHT22;53112;45.602;11.904;2022-08-01T15:39:23;41.90;24.90
62575;DHT22;53112;45.602;11.904;2022-08-01T15:41:50;41.80;25.40
62575;DHT22;53112;45.602;11.904;2022-08-01T15:44:16;41.10;25.40
62575;DHT22;53112;45.602;11.904;2022-08-01T15:46:48;41.00;25.70
62575;DHT22;53112;45.602;11.904;2022-08-01T15:49:15;41.10;25.70
62575;DHT22;53112;45.602;11.904;2022-08-01T15:51:42;40.30;26.20
62575;DHT22;53112;45.602;11.904;2022-08-01T15:54:09;39.90;26.50
62575;DHT22;53112;45.602;11.904;2022-08-01T15:56:36;39.80;26.80
62575;DHT22;53112;45.602;11.904;2022-08-01T15:59:03;39.80;26.80
62575;DHT22;53112;45.602;11.904;2022-08-01T16:01:30;39.90;26.80
62575;DHT22;53112;45.602;11.904;2022-08-01T16:03:56;39.80;27.00